sensor_id;sensor_type;location;lat;lon;timestamp;P1;durP1;ratioP1;P2;durP2;ratioP2
67053;SDS011;53960;51.826;5.850;2022-08-19T00:00:03;12.00;;;6.60;;
67053;SDS011;53960;51.826;5.850;2022-08-19T00:02:32;11.20;;;6.68;;
67053;SDS011;53960;51.826;5.850;2022-08-19T00:04:57;11.57;;;7.00;;
67053;SDS011;53960;51.826;5.850;2022-08-19T00:07:23;11.20;;;6.63;;
67053;SDS011;53960;51.826;5.850;2022-08-19T00:09:48;12.43;;;7.05;;
67053;SDS011;53960;51.826;5.850;2022-08-19T00:12:13;10.13;;;6.30;;
67053;SDS011;53960;51.826;5.850;2022-08-19T00:14:39;13.10;;;7.10;;
67053;SDS011;53960;51.826;5.850;2022-08-19T00:17:06;10.80;;;6.60;;
67053;SDS011;53960;51.826;5.850;2022-08-19T00:19:33;10.77;;;6.20;;
67053;SDS011;53960;51.826;5.850;2022-08-19T00:21:59;11.35;;;7.00;;
67053;SDS011;53960;51.826;5.850;2022-08-19T00:24:25;11.30;;;6.97;;
67053;SDS011;53960;51.826;5.850;2022-08-19T00:26:50;13.00;;;7.47;;
67053;SDS011;53960;51.826;5.850;2022-08-19T00:29:18;11.20;;;7.07;;
67053;SDS011;53960;51.826;5.850;2022-08-19T00:31:44;12.20;;;6.88;;
67053;SDS011;53960;51.826;5.850;2022-08-19T00:34:11;11.20;;;6.80;;
67053;SDS011;53960;51.826;5.850;2022-08-19T00:36:37;13.40;;;7.75;;
67053;SDS011;53960;51.826;5.850;2022-08-19T00:39:04;12.23;;;7.13;;
67053;SDS011;53960;51.826;5.850;2022-08-19T00:41:29;10.93;;;6.57;;
67053;SDS011;53960;51.826;5.850;2022-08-19T00:43:59;12.50;;;7.30;;
67053;SDS011;53960;51.826;5.850;2022-08-19T00:46:37;12.20;;;7.30;;
67053;SDS011;53960;51.826;5.850;2022-08-19T00:49:06;11.52;;;6.95;;
67053;SDS011;53960;51.826;5.850;2022-08-19T00:51:39;11.48;;;7.38;;
67053;SDS011;53960;51.826;5.850;2022-08-19T00:54:06;11.00;;;6.88;;
67053;SDS011;53960;51.826;5.850;2022-08-19T00:56:31;10.80;;;6.30;;
67053;SDS011;53960;51.826;5.850;2022-08-19T00:58:58;11.38;;;7.15;;
67053;SDS011;53960;51.826;5.850;2022-08-19T01:01:24;11.00;;;6.90;;
67053;SDS011;53960;51.826;5.850;2022-08-19T01:03:50;12.47;;;6.53;;
67053;SDS011;53960;51.826;5.850;2022-08-19T01:06:15;11.77;;;6.97;;
67053;SDS011;53960;51.826;5.850;2022-08-19T01:08:41;11.15;;;7.22;;
67053;SDS011;53960;51.826;5.850;2022-08-19T01:11:06;12.27;;;7.67;;
67053;SDS011;53960;51.826;5.850;2022-08-19T01:13:32;12.57;;;7.07;;
67053;SDS011;53960;51.826;5.850;2022-08-19T01:16:00;11.20;;;7.10;;
67053;SDS011;53960;51.826;5.850;2022-08-19T01:18:31;12.38;;;6.72;;
67053;SDS011;53960;51.826;5.850;2022-08-19T01:21:01;11.15;;;6.97;;
67053;SDS011;53960;51.826;5.850;2022-08-19T01:23:31;11.07;;;6.97;;
67053;SDS011;53960;51.826;5.850;2022-08-19T01:26:10;11.60;;;6.85;;
67053;SDS011;53960;51.826;5.850;2022-08-19T01:28:43;11.93;;;6.53;;
67053;SDS011;53960;51.826;5.850;2022-08-19T01:31:12;11.43;;;6.93;;
67053;SDS011;53960;51.826;5.850;2022-08-19T01:33:43;11.80;;;6.70;;
67053;SDS011;53960;51.826;5.850;2022-08-19T01:36:10;11.30;;;6.65;;
67053;SDS011;53960;51.826;5.850;2022-08-19T01:38:38;11.80;;;7.15;;
67053;SDS011;53960;51.826;5.850;2022-08-19T01:41:07;10.07;;;6.00;;
67053;SDS011;53960;51.826;5.850;2022-08-19T01:43:33;10.55;;;6.15;;
67053;SDS011;53960;51.826;5.850;2022-08-19T01:45:59;10.70;;;6.32;;
67053;SDS011;53960;51.826;5.850;2022-08-19T01:48:25;12.80;;;7.03;;
67053;SDS011;53960;51.826;5.850;2022-08-19T01:50:54;11.50;;;6.70;;
67053;SDS011;53960;51.826;5.850;2022-08-19T01:53:19;11.00;;;6.93;;
67053;SDS011;53960;51.826;5.850;2022-08-19T01:55:45;10.77;;;6.63;;
67053;SDS011;53960;51.826;5.850;2022-08-19T01:58:12;10.70;;;6.73;;
67053;SDS011;53960;51.826;5.850;2022-08-19T02:00:41;11.13;;;6.90;;
67053;SDS011;53960;51.826;5.850;2022-08-19T02:03:08;10.43;;;6.55;;
67053;SDS011;53960;51.826;5.850;2022-08-19T02:05:34;11.10;;;6.85;;
67053;SDS011;53960;51.826;5.850;2022-08-19T02:07:59;10.50;;;6.40;;
67053;SDS011;53960;51.826;5.850;2022-08-19T02:10:24;10.90;;;6.50;;
67053;SDS011;53960;51.826;5.850;2022-08-19T02:12:50;10.47;;;6.70;;
67053;SDS011;53960;51.826;5.850;2022-08-19T02:15:16;11.50;;;6.93;;
67053;SDS011;53960;51.826;5.850;2022-08-19T02:17:44;11.43;;;6.60;;
67053;SDS011;53960;51.826;5.850;2022-08-19T02:20:09;10.27;;;6.40;;
67053;SDS011;53960;51.826;5.850;2022-08-19T02:22:37;10.27;;;5.93;;
67053;SDS011;53960;51.826;5.850;2022-08-19T02:25:06;12.32;;;7.10;;
67053;SDS011;53960;51.826;5.850;2022-08-19T02:27:32;13.50;;;6.70;;
67053;SDS011;53960;51.826;5.850;2022-08-19T02:29:58;11.50;;;6.40;;
67053;SDS011;53960;51.826;5.850;2022-08-19T02:32:24;10.17;;;6.47;;
67053;SDS011;53960;51.826;5.850;2022-08-19T02:34:50;10.95;;;6.28;;
67053;SDS011;53960;51.826;5.850;2022-08-19T02:37:15;11.47;;;6.57;;
67053;SDS011;53960;51.826;5.850;2022-08-19T02:39:59;10.85;;;6.60;;
67053;SDS011;53960;51.826;5.850;2022-08-19T02:42:26;10.98;;;6.50;;
67053;SDS011;53960;51.826;5.850;2022-08-19T02:44:51;11.23;;;6.90;;
67053;SDS011;53960;51.826;5.850;2022-08-19T02:47:17;10.83;;;6.70;;
67053;SDS011;53960;51.826;5.850;2022-08-19T02:49:44;11.18;;;6.30;;
67053;SDS011;53960;51.826;5.850;2022-08-19T02:52:10;11.27;;;6.77;;
67053;SDS011;53960;51.826;5.850;2022-08-19T02:54:36;10.70;;;6.28;;
67053;SDS011;53960;51.826;5.850;2022-08-19T02:57:02;11.57;;;7.28;;
67053;SDS011;53960;51.826;5.850;2022-08-19T02:59:29;11.30;;;6.53;;
67053;SDS011;53960;51.826;5.850;2022-08-19T03:01:55;10.83;;;6.90;;
67053;SDS011;53960;51.826;5.850;2022-08-19T03:04:21;10.60;;;6.43;;
67053;SDS011;53960;51.826;5.850;2022-08-19T03:06:48;10.68;;;6.50;;
67053;SDS011;53960;51.826;5.850;2022-08-19T03:09:14;10.97;;;6.50;;
67053;SDS011;53960;51.826;5.850;2022-08-19T03:11:41;10.10;;;6.00;;
67053;SDS011;53960;51.826;5.850;2022-08-19T03:14:07;11.57;;;6.13;;
67053;SDS011;53960;51.826;5.850;2022-08-19T03:16:34;10.43;;;6.30;;
67053;SDS011;53960;51.826;5.850;2022-08-19T03:19:05;10.38;;;6.00;;
67053;SDS011;53960;51.826;5.850;2022-08-19T03:21:32;11.10;;;6.43;;
67053;SDS011;53960;51.826;5.850;2022-08-19T03:24:02;10.73;;;6.13;;
67053;SDS011;53960;51.826;5.850;2022-08-19T03:26:31;12.20;;;6.70;;
67053;SDS011;53960;51.826;5.850;2022-08-19T03:28:57;11.50;;;6.80;;
67053;SDS011;53960;51.826;5.850;2022-08-19T03:31:27;11.98;;;6.95;;
67053;SDS011;53960;51.826;5.850;2022-08-19T03:33:52;13.93;;;7.60;;
67053;SDS011;53960;51.826;5.850;2022-08-19T03:36:19;14.37;;;9.07;;
67053;SDS011;53960;51.826;5.850;2022-08-19T03:38:52;16.77;;;10.20;;
67053;SDS011;53960;51.826;5.850;2022-08-19T03:41:41;16.00;;;10.27;;
67053;SDS011;53960;51.826;5.850;2022-08-19T03:44:06;18.25;;;11.13;;
67053;SDS011;53960;51.826;5.850;2022-08-19T03:46:33;17.58;;;11.48;;
67053;SDS011;53960;51.826;5.850;2022-08-19T03:49:00;19.00;;;11.57;;
67053;SDS011;53960;51.826;5.850;2022-08-19T03:51:35;21.08;;;12.48;;
67053;SDS011;53960;51.826;5.850;2022-08-19T03:54:03;21.73;;;12.60;;
67053;SDS011;53960;51.826;5.850;2022-08-19T03:56:32;20.17;;;13.02;;
67053;SDS011;53960;51.826;5.850;2022-08-19T03:59:00;19.70;;;12.90;;
67053;SDS011;53960;51.826;5.850;2022-08-19T04:01:26;18.85;;;12.68;;
67053;SDS011;53960;51.826;5.850;2022-08-19T04:03:54;20.00;;;12.90;;
67053;SDS011;53960;51.826;5.850;2022-08-19T04:06:22;20.87;;;13.20;;
67053;SDS011;53960;51.826;5.850;2022-08-19T04:08:50;19.67;;;12.73;;
67053;SDS011;53960;51.826;5.850;2022-08-19T04:11:17;18.98;;;12.60;;
67053;SDS011;53960;51.826;5.850;2022-08-19T04:13:46;20.67;;;12.60;;
67053;SDS011;53960;51.826;5.850;2022-08-19T04:16:11;18.03;;;12.20;;
67053;SDS011;53960;51.826;5.850;2022-08-19T04:18:37;17.97;;;12.27;;
67053;SDS011;53960;51.826;5.850;2022-08-19T04:21:04;17.38;;;11.13;;
67053;SDS011;53960;51.826;5.850;2022-08-19T04:23:30;16.60;;;11.25;;
67053;SDS011;53960;51.826;5.850;2022-08-19T04:25:56;17.63;;;10.77;;
67053;SDS011;53960;51.826;5.850;2022-08-19T04:28:22;16.53;;;10.80;;
67053;SDS011;53960;51.826;5.850;2022-08-19T04:30:50;15.88;;;10.48;;
67053;SDS011;53960;51.826;5.850;2022-08-19T04:33:19;16.23;;;10.55;;
67053;SDS011;53960;51.826;5.850;2022-08-19T04:35:48;15.82;;;9.70;;
67053;SDS011;53960;51.826;5.850;2022-08-19T04:38:15;15.93;;;10.07;;
67053;SDS011;53960;51.826;5.850;2022-08-19T04:40:44;15.23;;;9.90;;
67053;SDS011;53960;51.826;5.850;2022-08-19T04:43:29;16.10;;;10.15;;
67053;SDS011;53960;51.826;5.850;2022-08-19T04:45:56;16.75;;;10.27;;
67053;SDS011;53960;51.826;5.850;2022-08-19T04:48:21;17.10;;;10.37;;
67053;SDS011;53960;51.826;5.850;2022-08-19T04:50:52;18.08;;;11.43;;
67053;SDS011;53960;51.826;5.850;2022-08-19T04:53:24;16.45;;;10.60;;
67053;SDS011;53960;51.826;5.850;2022-08-19T04:55:51;16.38;;;10.50;;
67053;SDS011;53960;51.826;5.850;2022-08-19T04:58:17;17.23;;;11.40;;
67053;SDS011;53960;51.826;5.850;2022-08-19T05:00:43;18.73;;;12.00;;
67053;SDS011;53960;51.826;5.850;2022-08-19T05:03:08;18.97;;;11.47;;
67053;SDS011;53960;51.826;5.850;2022-08-19T05:05:37;17.20;;;11.15;;
67053;SDS011;53960;51.826;5.850;2022-08-19T05:08:04;17.00;;;11.77;;
67053;SDS011;53960;51.826;5.850;2022-08-19T05:10:30;19.15;;;12.15;;
67053;SDS011;53960;51.826;5.850;2022-08-19T05:12:56;18.97;;;12.17;;
67053;SDS011;53960;51.826;5.850;2022-08-19T05:15:22;19.58;;;12.55;;
67053;SDS011;53960;51.826;5.850;2022-08-19T05:17:47;21.47;;;13.93;;
67053;SDS011;53960;51.826;5.850;2022-08-19T05:20:33;23.45;;;14.57;;
67053;SDS011;53960;51.826;5.850;2022-08-19T05:23:16;25.40;;;15.57;;
67053;SDS011;53960;51.826;5.850;2022-08-19T05:25:42;36.07;;;22.17;;
67053;SDS011;53960;51.826;5.850;2022-08-19T05:28:07;33.77;;;21.60;;
67053;SDS011;53960;51.826;5.850;2022-08-19T05:30:32;29.80;;;18.53;;
67053;SDS011;53960;51.826;5.850;2022-08-19T05:32:59;28.60;;;18.67;;
67053;SDS011;53960;51.826;5.850;2022-08-19T05:35:24;29.55;;;18.80;;
67053;SDS011;53960;51.826;5.850;2022-08-19T05:37:49;29.10;;;18.87;;
67053;SDS011;53960;51.826;5.850;2022-08-19T05:40:15;30.63;;;19.07;;
67053;SDS011;53960;51.826;5.850;2022-08-19T05:42:40;31.67;;;20.13;;
67053;SDS011;53960;51.826;5.850;2022-08-19T05:45:06;31.03;;;19.77;;
67053;SDS011;53960;51.826;5.850;2022-08-19T05:47:32;32.70;;;19.88;;
67053;SDS011;53960;51.826;5.850;2022-08-19T05:49:57;30.63;;;19.90;;
67053;SDS011;53960;51.826;5.850;2022-08-19T05:52:23;29.25;;;18.95;;
67053;SDS011;53960;51.826;5.850;2022-08-19T05:54:48;29.40;;;18.17;;
67053;SDS011;53960;51.826;5.850;2022-08-19T05:57:15;33.13;;;20.87;;
67053;SDS011;53960;51.826;5.850;2022-08-19T05:59:41;32.53;;;19.55;;
67053;SDS011;53960;51.826;5.850;2022-08-19T06:02:06;32.90;;;20.67;;
67053;SDS011;53960;51.826;5.850;2022-08-19T06:04:32;32.47;;;20.20;;
67053;SDS011;53960;51.826;5.850;2022-08-19T06:06:58;32.80;;;20.50;;
67053;SDS011;53960;51.826;5.850;2022-08-19T06:09:23;35.00;;;21.73;;
67053;SDS011;53960;51.826;5.850;2022-08-19T06:11:53;42.50;;;24.55;;
67053;SDS011;53960;51.826;5.850;2022-08-19T06:14:25;45.55;;;26.40;;
67053;SDS011;53960;51.826;5.850;2022-08-19T06:16:53;47.10;;;26.50;;
67053;SDS011;53960;51.826;5.850;2022-08-19T06:19:19;50.03;;;28.20;;
67053;SDS011;53960;51.826;5.850;2022-08-19T06:21:47;50.10;;;27.58;;
67053;SDS011;53960;51.826;5.850;2022-08-19T06:24:15;53.60;;;29.13;;
67053;SDS011;53960;51.826;5.850;2022-08-19T06:26:46;50.42;;;26.45;;
67053;SDS011;53960;51.826;5.850;2022-08-19T06:29:15;49.72;;;27.40;;
67053;SDS011;53960;51.826;5.850;2022-08-19T06:31:42;49.60;;;27.97;;
67053;SDS011;53960;51.826;5.850;2022-08-19T06:34:14;51.58;;;29.13;;
67053;SDS011;53960;51.826;5.850;2022-08-19T06:36:42;49.78;;;27.50;;
67053;SDS011;53960;51.826;5.850;2022-08-19T06:39:14;52.25;;;27.83;;
67053;SDS011;53960;51.826;5.850;2022-08-19T06:41:46;53.85;;;28.05;;
67053;SDS011;53960;51.826;5.850;2022-08-19T06:44:13;51.67;;;26.63;;
67053;SDS011;53960;51.826;5.850;2022-08-19T06:46:40;50.97;;;27.77;;
67053;SDS011;53960;51.826;5.850;2022-08-19T06:49:06;56.08;;;28.92;;
67053;SDS011;53960;51.826;5.850;2022-08-19T06:51:34;57.15;;;29.13;;
67053;SDS011;53960;51.826;5.850;2022-08-19T06:54:00;62.17;;;30.10;;
67053;SDS011;53960;51.826;5.850;2022-08-19T06:56:27;62.50;;;30.00;;
67053;SDS011;53960;51.826;5.850;2022-08-19T06:58:58;57.28;;;28.65;;
67053;SDS011;53960;51.826;5.850;2022-08-19T07:01:38;55.40;;;27.77;;
67053;SDS011;53960;51.826;5.850;2022-08-19T07:04:12;57.08;;;28.92;;
67053;SDS011;53960;51.826;5.850;2022-08-19T07:06:40;55.33;;;29.33;;
67053;SDS011;53960;51.826;5.850;2022-08-19T07:09:06;54.35;;;28.27;;
67053;SDS011;53960;51.826;5.850;2022-08-19T07:11:33;53.10;;;27.97;;
67053;SDS011;53960;51.826;5.850;2022-08-19T07:13:59;54.38;;;28.80;;
67053;SDS011;53960;51.826;5.850;2022-08-19T07:16:25;55.28;;;29.00;;
67053;SDS011;53960;51.826;5.850;2022-08-19T07:18:51;56.17;;;29.80;;
67053;SDS011;53960;51.826;5.850;2022-08-19T07:21:26;55.03;;;27.80;;
67053;SDS011;53960;51.826;5.850;2022-08-19T07:23:56;54.30;;;28.73;;
67053;SDS011;53960;51.826;5.850;2022-08-19T07:26:24;51.13;;;27.13;;
67053;SDS011;53960;51.826;5.850;2022-08-19T07:28:52;51.70;;;26.55;;
67053;SDS011;53960;51.826;5.850;2022-08-19T07:31:19;53.13;;;29.17;;
67053;SDS011;53960;51.826;5.850;2022-08-19T07:33:46;55.38;;;28.33;;
67053;SDS011;53960;51.826;5.850;2022-08-19T07:36:14;53.70;;;27.87;;
67053;SDS011;53960;51.826;5.850;2022-08-19T07:38:42;52.67;;;29.27;;
67053;SDS011;53960;51.826;5.850;2022-08-19T07:41:13;55.28;;;29.08;;
67053;SDS011;53960;51.826;5.850;2022-08-19T07:43:41;51.97;;;27.92;;
67053;SDS011;53960;51.826;5.850;2022-08-19T07:46:08;49.30;;;27.52;;
67053;SDS011;53960;51.826;5.850;2022-08-19T07:48:34;50.03;;;28.63;;
67053;SDS011;53960;51.826;5.850;2022-08-19T07:51:01;46.83;;;26.70;;
67053;SDS011;53960;51.826;5.850;2022-08-19T07:53:28;52.43;;;29.47;;
67053;SDS011;53960;51.826;5.850;2022-08-19T07:55:55;47.13;;;28.98;;
67053;SDS011;53960;51.826;5.850;2022-08-19T07:58:23;54.92;;;30.67;;
67053;SDS011;53960;51.826;5.850;2022-08-19T08:00:49;43.33;;;27.50;;
67053;SDS011;53960;51.826;5.850;2022-08-19T08:03:16;46.10;;;27.77;;
67053;SDS011;53960;51.826;5.850;2022-08-19T08:05:44;46.72;;;27.00;;
67053;SDS011;53960;51.826;5.850;2022-08-19T08:08:29;42.22;;;25.48;;
67053;SDS011;53960;51.826;5.850;2022-08-19T08:11:20;43.57;;;26.03;;
67053;SDS011;53960;51.826;5.850;2022-08-19T08:13:46;45.38;;;25.73;;
67053;SDS011;53960;51.826;5.850;2022-08-19T08:16:13;45.40;;;27.33;;
67053;SDS011;53960;51.826;5.850;2022-08-19T08:18:38;42.47;;;25.33;;
67053;SDS011;53960;51.826;5.850;2022-08-19T08:21:06;42.45;;;24.13;;
67053;SDS011;53960;51.826;5.850;2022-08-19T08:23:31;45.50;;;27.10;;
67053;SDS011;53960;51.826;5.850;2022-08-19T08:25:57;47.10;;;25.70;;
67053;SDS011;53960;51.826;5.850;2022-08-19T08:28:23;44.03;;;26.43;;
67053;SDS011;53960;51.826;5.850;2022-08-19T08:30:50;40.53;;;25.10;;
67053;SDS011;53960;51.826;5.850;2022-08-19T08:33:19;43.10;;;25.75;;
67053;SDS011;53960;51.826;5.850;2022-08-19T08:35:46;41.13;;;24.95;;
67053;SDS011;53960;51.826;5.850;2022-08-19T08:38:11;42.03;;;23.50;;
67053;SDS011;53960;51.826;5.850;2022-08-19T08:40:48;38.50;;;22.88;;
67053;SDS011;53960;51.826;5.850;2022-08-19T08:43:27;37.60;;;21.02;;
67053;SDS011;53960;51.826;5.850;2022-08-19T08:46:00;32.37;;;19.50;;
67053;SDS011;53960;51.826;5.850;2022-08-19T08:50:57;35.40;;;20.38;;
67053;SDS011;53960;51.826;5.850;2022-08-19T08:53:26;33.28;;;18.13;;
67053;SDS011;53960;51.826;5.850;2022-08-19T08:55:52;35.33;;;19.95;;
67053;SDS011;53960;51.826;5.850;2022-08-19T08:58:25;35.37;;;20.33;;
67053;SDS011;53960;51.826;5.850;2022-08-19T09:01:04;33.45;;;18.48;;
67053;SDS011;53960;51.826;5.850;2022-08-19T09:03:30;30.40;;;17.97;;
67053;SDS011;53960;51.826;5.850;2022-08-19T09:14:07;28.33;;;16.50;;
67053;SDS011;53960;51.826;5.850;2022-08-19T09:16:39;28.65;;;16.00;;
67053;SDS011;53960;51.826;5.850;2022-08-19T09:19:05;28.40;;;15.33;;
67053;SDS011;53960;51.826;5.850;2022-08-19T09:21:32;27.58;;;15.13;;
67053;SDS011;53960;51.826;5.850;2022-08-19T09:23:59;27.75;;;14.50;;
67053;SDS011;53960;51.826;5.850;2022-08-19T09:26:25;28.85;;;14.95;;
67053;SDS011;53960;51.826;5.850;2022-08-19T09:28:52;32.60;;;15.50;;
67053;SDS011;53960;51.826;5.850;2022-08-19T09:31:22;23.37;;;14.53;;
67053;SDS011;53960;51.826;5.850;2022-08-19T09:33:49;24.98;;;13.65;;
67053;SDS011;53960;51.826;5.850;2022-08-19T09:36:16;21.90;;;12.57;;
67053;SDS011;53960;51.826;5.850;2022-08-19T09:38:43;23.05;;;12.95;;
67053;SDS011;53960;51.826;5.850;2022-08-19T09:41:13;26.58;;;15.07;;
67053;SDS011;53960;51.826;5.850;2022-08-19T09:43:41;25.90;;;14.60;;
67053;SDS011;53960;51.826;5.850;2022-08-19T09:46:10;39.58;;;20.80;;
67053;SDS011;53960;51.826;5.850;2022-08-19T09:48:36;35.05;;;19.75;;
67053;SDS011;53960;51.826;5.850;2022-08-19T09:51:03;35.88;;;20.27;;
67053;SDS011;53960;51.826;5.850;2022-08-19T09:53:36;33.17;;;19.20;;
67053;SDS011;53960;51.826;5.850;2022-08-19T09:56:03;33.37;;;20.30;;
67053;SDS011;53960;51.826;5.850;2022-08-19T09:58:29;34.17;;;20.98;;
67053;SDS011;53960;51.826;5.850;2022-08-19T10:00:55;35.13;;;20.17;;
67053;SDS011;53960;51.826;5.850;2022-08-19T10:03:22;38.33;;;20.40;;
67053;SDS011;53960;51.826;5.850;2022-08-19T10:05:48;36.87;;;19.07;;
67053;SDS011;53960;51.826;5.850;2022-08-19T10:08:21;30.80;;;17.38;;
67053;SDS011;53960;51.826;5.850;2022-08-19T10:10:50;28.92;;;16.48;;
67053;SDS011;53960;51.826;5.850;2022-08-19T10:13:17;32.30;;;17.90;;
67053;SDS011;53960;51.826;5.850;2022-08-19T10:15:48;28.92;;;17.95;;
67053;SDS011;53960;51.826;5.850;2022-08-19T10:18:16;30.83;;;19.20;;
67053;SDS011;53960;51.826;5.850;2022-08-19T10:20:47;34.53;;;19.83;;
67053;SDS011;53960;51.826;5.850;2022-08-19T10:23:15;30.27;;;18.25;;
67053;SDS011;53960;51.826;5.850;2022-08-19T10:25:42;33.70;;;18.77;;
67053;SDS011;53960;51.826;5.850;2022-08-19T10:28:08;32.40;;;18.57;;
67053;SDS011;53960;51.826;5.850;2022-08-19T10:30:35;31.63;;;18.15;;
67053;SDS011;53960;51.826;5.850;2022-08-19T10:33:00;28.40;;;16.80;;
67053;SDS011;53960;51.826;5.850;2022-08-19T10:35:26;24.50;;;14.10;;
67053;SDS011;53960;51.826;5.850;2022-08-19T10:37:53;24.48;;;13.63;;
67053;SDS011;53960;51.826;5.850;2022-08-19T10:40:18;21.57;;;12.50;;
67053;SDS011;53960;51.826;5.850;2022-08-19T10:42:44;22.90;;;12.43;;
67053;SDS011;53960;51.826;5.850;2022-08-19T10:45:09;26.30;;;14.00;;
67053;SDS011;53960;51.826;5.850;2022-08-19T10:47:35;26.60;;;14.18;;
67053;SDS011;53960;51.826;5.850;2022-08-19T10:50:01;22.45;;;13.15;;
67053;SDS011;53960;51.826;5.850;2022-08-19T10:52:47;20.70;;;12.15;;
67053;SDS011;53960;51.826;5.850;2022-08-19T10:55:13;24.40;;;13.73;;
67053;SDS011;53960;51.826;5.850;2022-08-19T10:57:57;23.50;;;13.43;;
67053;SDS011;53960;51.826;5.850;2022-08-19T11:00:23;22.17;;;13.57;;
67053;SDS011;53960;51.826;5.850;2022-08-19T11:02:49;22.80;;;12.80;;
67053;SDS011;53960;51.826;5.850;2022-08-19T11:05:15;22.25;;;12.48;;
67053;SDS011;53960;51.826;5.850;2022-08-19T11:07:42;23.83;;;13.27;;
67053;SDS011;53960;51.826;5.850;2022-08-19T11:10:09;22.58;;;12.80;;
67053;SDS011;53960;51.826;5.850;2022-08-19T11:12:37;25.77;;;15.50;;
67053;SDS011;53960;51.826;5.850;2022-08-19T11:15:07;25.07;;;14.83;;
67053;SDS011;53960;51.826;5.850;2022-08-19T11:17:36;24.38;;;13.95;;
67053;SDS011;53960;51.826;5.850;2022-08-19T11:20:05;29.48;;;13.98;;
67053;SDS011;53960;51.826;5.850;2022-08-19T11:22:32;24.08;;;13.40;;
67053;SDS011;53960;51.826;5.850;2022-08-19T11:24:57;20.63;;;12.33;;
67053;SDS011;53960;51.826;5.850;2022-08-19T11:27:22;22.83;;;12.73;;
67053;SDS011;53960;51.826;5.850;2022-08-19T11:29:48;25.77;;;13.50;;
67053;SDS011;53960;51.826;5.850;2022-08-19T11:32:13;21.63;;;12.80;;
67053;SDS011;53960;51.826;5.850;2022-08-19T11:34:39;21.73;;;13.45;;
67053;SDS011;53960;51.826;5.850;2022-08-19T11:37:05;23.07;;;13.57;;
67053;SDS011;53960;51.826;5.850;2022-08-19T11:39:31;21.60;;;13.77;;
67053;SDS011;53960;51.826;5.850;2022-08-19T11:41:59;26.65;;;15.93;;
67053;SDS011;53960;51.826;5.850;2022-08-19T11:44:26;22.63;;;14.43;;
67053;SDS011;53960;51.826;5.850;2022-08-19T11:46:51;23.97;;;13.50;;
67053;SDS011;53960;51.826;5.850;2022-08-19T11:49:18;25.50;;;15.52;;
67053;SDS011;53960;51.826;5.850;2022-08-19T11:51:44;24.23;;;15.23;;
67053;SDS011;53960;51.826;5.850;2022-08-19T11:54:12;29.05;;;15.80;;
67053;SDS011;53960;51.826;5.850;2022-08-19T11:56:39;25.20;;;15.45;;
67053;SDS011;53960;51.826;5.850;2022-08-19T11:59:05;28.80;;;15.23;;
67053;SDS011;53960;51.826;5.850;2022-08-19T12:01:31;28.47;;;17.73;;
67053;SDS011;53960;51.826;5.850;2022-08-19T12:03:56;24.57;;;15.30;;
67053;SDS011;53960;51.826;5.850;2022-08-19T12:06:23;28.10;;;17.05;;
67053;SDS011;53960;51.826;5.850;2022-08-19T12:08:53;27.80;;;16.95;;
67053;SDS011;53960;51.826;5.850;2022-08-19T12:11:18;25.07;;;17.07;;
67053;SDS011;53960;51.826;5.850;2022-08-19T12:13:44;26.23;;;16.53;;
67053;SDS011;53960;51.826;5.850;2022-08-19T12:16:11;25.08;;;16.38;;
67053;SDS011;53960;51.826;5.850;2022-08-19T12:18:40;27.30;;;16.00;;
67053;SDS011;53960;51.826;5.850;2022-08-19T12:21:10;27.35;;;16.30;;
67053;SDS011;53960;51.826;5.850;2022-08-19T12:23:38;27.02;;;17.15;;
67053;SDS011;53960;51.826;5.850;2022-08-19T12:26:04;30.43;;;18.30;;
67053;SDS011;53960;51.826;5.850;2022-08-19T12:28:30;27.83;;;17.23;;
67053;SDS011;53960;51.826;5.850;2022-08-19T12:30:56;26.45;;;17.05;;
67053;SDS011;53960;51.826;5.850;2022-08-19T12:33:22;28.55;;;17.80;;
67053;SDS011;53960;51.826;5.850;2022-08-19T12:35:50;26.30;;;17.13;;
67053;SDS011;53960;51.826;5.850;2022-08-19T12:38:16;26.13;;;17.05;;
67053;SDS011;53960;51.826;5.850;2022-08-19T12:40:44;27.20;;;17.47;;
67053;SDS011;53960;51.826;5.850;2022-08-19T12:43:11;26.27;;;16.65;;
67053;SDS011;53960;51.826;5.850;2022-08-19T12:45:37;28.73;;;18.40;;
67053;SDS011;53960;51.826;5.850;2022-08-19T12:48:02;26.03;;;17.23;;
67053;SDS011;53960;51.826;5.850;2022-08-19T12:50:29;29.33;;;18.40;;
67053;SDS011;53960;51.826;5.850;2022-08-19T12:52:55;28.20;;;18.90;;
67053;SDS011;53960;51.826;5.850;2022-08-19T12:55:21;26.20;;;17.80;;
67053;SDS011;53960;51.826;5.850;2022-08-19T12:57:47;27.10;;;18.30;;
67053;SDS011;53960;51.826;5.850;2022-08-19T13:00:15;27.17;;;17.50;;
67053;SDS011;53960;51.826;5.850;2022-08-19T13:02:45;26.67;;;17.85;;
67053;SDS011;53960;51.826;5.850;2022-08-19T13:05:15;26.33;;;17.53;;
67053;SDS011;53960;51.826;5.850;2022-08-19T13:07:44;28.48;;;18.92;;
67053;SDS011;53960;51.826;5.850;2022-08-19T13:10:10;27.20;;;18.80;;
67053;SDS011;53960;51.826;5.850;2022-08-19T13:12:37;30.92;;;21.05;;
67053;SDS011;53960;51.826;5.850;2022-08-19T13:15:03;28.35;;;19.65;;
67053;SDS011;53960;51.826;5.850;2022-08-19T13:17:29;31.38;;;18.95;;
67053;SDS011;53960;51.826;5.850;2022-08-19T13:19:54;26.40;;;17.07;;
67053;SDS011;53960;51.826;5.850;2022-08-19T13:22:20;25.67;;;17.63;;
67053;SDS011;53960;51.826;5.850;2022-08-19T13:24:45;24.07;;;15.97;;
67053;SDS011;53960;51.826;5.850;2022-08-19T13:27:10;27.93;;;17.83;;
67053;SDS011;53960;51.826;5.850;2022-08-19T13:29:36;29.98;;;18.00;;
67053;SDS011;53960;51.826;5.850;2022-08-19T13:32:20;31.10;;;20.00;;
67053;SDS011;53960;51.826;5.850;2022-08-19T13:35:04;24.00;;;15.95;;
67053;SDS011;53960;51.826;5.850;2022-08-19T13:37:30;24.98;;;16.70;;
67053;SDS011;53960;51.826;5.850;2022-08-19T13:40:08;23.70;;;15.77;;
67053;SDS011;53960;51.826;5.850;2022-08-19T13:42:37;22.52;;;14.90;;
67053;SDS011;53960;51.826;5.850;2022-08-19T13:45:03;23.50;;;14.80;;
67053;SDS011;53960;51.826;5.850;2022-08-19T13:47:31;26.00;;;15.70;;
67053;SDS011;53960;51.826;5.850;2022-08-19T13:49:56;25.93;;;16.70;;
67053;SDS011;53960;51.826;5.850;2022-08-19T13:52:22;27.73;;;17.17;;
67053;SDS011;53960;51.826;5.850;2022-08-19T13:54:47;26.67;;;15.87;;
67053;SDS011;53960;51.826;5.850;2022-08-19T13:57:13;25.15;;;16.83;;
67053;SDS011;53960;51.826;5.850;2022-08-19T13:59:38;29.30;;;17.97;;
67053;SDS011;53960;51.826;5.850;2022-08-19T14:02:04;25.27;;;17.27;;
67053;SDS011;53960;51.826;5.850;2022-08-19T14:04:30;27.23;;;16.55;;
67053;SDS011;53960;51.826;5.850;2022-08-19T14:06:55;27.20;;;16.47;;
67053;SDS011;53960;51.826;5.850;2022-08-19T14:09:21;24.20;;;15.73;;
67053;SDS011;53960;51.826;5.850;2022-08-19T14:11:46;25.53;;;15.90;;
67053;SDS011;53960;51.826;5.850;2022-08-19T14:14:11;25.53;;;14.67;;
67053;SDS011;53960;51.826;5.850;2022-08-19T14:16:37;25.00;;;15.77;;
67053;SDS011;53960;51.826;5.850;2022-08-19T14:19:02;25.53;;;15.50;;
67053;SDS011;53960;51.826;5.850;2022-08-19T14:21:28;25.67;;;15.07;;
67053;SDS011;53960;51.826;5.850;2022-08-19T14:23:53;22.80;;;13.80;;
67053;SDS011;53960;51.826;5.850;2022-08-19T14:26:19;24.07;;;15.50;;
67053;SDS011;53960;51.826;5.850;2022-08-19T14:28:45;26.17;;;16.00;;
67053;SDS011;53960;51.826;5.850;2022-08-19T14:31:11;28.23;;;17.33;;
67053;SDS011;53960;51.826;5.850;2022-08-19T14:33:38;28.27;;;15.93;;
67053;SDS011;53960;51.826;5.850;2022-08-19T14:36:04;26.07;;;14.67;;
67053;SDS011;53960;51.826;5.850;2022-08-19T14:38:30;21.95;;;13.40;;